Florence, Mississippi
Current Conditions -  °F | °C
As of 5:54 AM on Thursday 29 Jan 2015 (Local Time) from KJAN Reporting Station
Clear Clear  
Wind Chill: 42°   Ceiling: Unl
Heat Index: 47°   Visibility: 10mi
Dew Point: 42°   Wind: 10mph
Humidity: 83%   Direction: 170°S
Pressure: 30.17"   Gusts: NA
Location:  32.15°N, 90.13°W
Report Text: KJAN 291154Z 17009KT 10SM CLR 08/06 A3017 RMK AO2 SLP217 T00830056 10100 20067 58002
Loading
Personal Weather Stations






























Interactive Weather Map New forecast layout! Learn more

10-Day Weather Forecast

Advertisements
Track Severe Weather on mobile